createdAt,value
2019-04-16T00:02:07.890Z,36.54
2019-04-16T00:04:37.988Z,36.54
2019-04-16T00:07:08.050Z,36.45
2019-04-16T00:09:54.588Z,37.07
2019-04-16T00:12:30.391Z,37.49
2019-04-16T00:15:00.347Z,37.21
2019-04-16T00:17:28.798Z,37.45
2019-04-16T00:19:57.198Z,37.43
2019-04-16T00:22:27.240Z,36.80
2019-04-16T00:24:55.855Z,36.89
2019-04-16T00:27:28.306Z,36.83
2019-04-16T00:29:54.677Z,36.76
2019-04-16T00:32:26.188Z,36.83
2019-04-16T00:34:54.991Z,36.89
2019-04-16T00:37:23.420Z,36.87
2019-04-16T00:39:55.619Z,36.89
2019-04-16T00:42:21.998Z,36.85
2019-04-16T00:44:50.508Z,37.08
2019-04-16T00:47:18.908Z,36.98
2019-04-16T00:49:47.347Z,37.47
2019-04-16T00:52:15.743Z,37.28
2019-04-16T00:54:44.183Z,36.78
2019-04-16T00:57:12.617Z,37.00
2019-04-16T00:59:41.075Z,36.97
2019-04-16T01:02:09.503Z,36.89
2019-04-16T01:04:37.947Z,37.12
2019-04-16T01:07:06.508Z,36.93
2019-04-16T01:09:34.967Z,37.05
2019-04-16T01:12:03.359Z,37.37
2019-04-16T01:14:31.795Z,37.02
2019-04-16T01:17:03.879Z,36.93
2019-04-16T01:19:30.381Z,37.01
2019-04-16T01:21:58.803Z,36.92
2019-04-16T01:24:27.215Z,37.09
2019-04-16T01:26:58.268Z,36.99
2019-04-16T01:29:25.840Z,37.04
2019-04-16T01:31:55.880Z,37.30
2019-04-16T01:34:42.228Z,36.91
2019-04-16T01:37:25.864Z,37.37
2019-04-16T01:39:55.961Z,37.58
2019-04-16T01:42:24.356Z,37.54
2019-04-16T01:44:52.773Z,36.85
2019-04-16T01:47:21.190Z,37.29
2019-04-16T01:49:49.589Z,37.10
2019-04-16T01:52:19.060Z,37.40
2019-04-16T01:54:48.133Z,37.16
2019-04-16T01:57:16.614Z,37.20
2019-04-16T01:59:45.011Z,37.44
2019-04-16T02:02:15.553Z,37.30
2019-04-16T02:04:43.529Z,37.31
2019-04-16T02:07:11.935Z,37.14
2019-04-16T02:09:40.413Z,37.21
2019-04-16T02:12:12.810Z,37.30
2019-04-16T02:14:39.006Z,37.21
2019-04-16T02:17:07.406Z,37.20
2019-04-16T02:19:35.866Z,37.41
2019-04-16T02:22:04.291Z,37.48
2019-04-16T02:24:32.681Z,36.97
2019-04-16T02:27:01.115Z,37.18
2019-04-16T02:29:30.591Z,37.05
2019-04-16T02:31:59.150Z,37.37
2019-04-16T02:34:27.536Z,37.54
2019-04-16T02:37:00.559Z,37.47
2019-04-16T02:39:46.586Z,37.22
2019-04-16T02:41:58.180Z,37.17
2019-04-16T02:44:26.314Z,37.17
2019-04-16T02:46:54.715Z,37.44
2019-04-16T02:49:24.883Z,37.22
2019-04-16T02:51:57.744Z,37.24
2019-04-16T02:54:34.469Z,36.84
2019-04-16T02:57:26.757Z,37.51
2019-04-16T02:59:53.468Z,37.08
2019-04-16T03:02:23.803Z,36.99
2019-04-16T03:05:09.022Z,37.37
2019-04-16T03:07:37.665Z,36.88
2019-04-16T03:10:06.064Z,37.15
2019-04-16T03:12:34.520Z,37.27
2019-04-16T03:15:02.990Z,37.03
2019-04-16T03:17:39.510Z,36.99
2019-04-16T03:20:10.906Z,37.06
2019-04-16T03:22:39.295Z,36.98
2019-04-16T03:25:12.369Z,37.09
2019-04-16T03:27:37.833Z,37.11
2019-04-16T03:30:06.483Z,37.45
2019-04-16T03:32:36.522Z,37.09
2019-04-16T03:35:06.324Z,37.13
2019-04-16T03:37:34.776Z,37.24
2019-04-16T03:40:15.198Z,37.30
2019-04-16T03:42:33.767Z,36.89
2019-04-16T03:45:02.158Z,37.03
2019-04-16T03:47:30.569Z,37.38
2019-04-16T03:49:59.500Z,37.06
2019-04-16T03:52:28.672Z,37.09
2019-04-16T03:54:57.063Z,37.23
2019-04-16T03:57:25.494Z,36.75
2019-04-16T03:59:53.892Z,36.92
2019-04-16T04:02:23.104Z,37.20
2019-04-16T04:04:51.767Z,37.12
2019-04-16T04:07:20.193Z,37.33
2019-04-16T04:09:48.576Z,36.88
2019-04-16T04:12:17.116Z,36.87
2019-04-16T04:14:45.516Z,37.10
2019-04-16T04:17:14.132Z,37.35
2019-04-16T04:19:43.495Z,36.83
2019-04-16T04:22:12.780Z,37.16
2019-04-16T04:24:41.179Z,37.07
2019-04-16T04:27:13.086Z,36.86
2019-04-16T04:29:39.828Z,37.51
2019-04-16T04:32:08.262Z,37.06
2019-04-16T04:34:36.933Z,36.89
2019-04-16T04:37:05.508Z,37.26
2019-04-16T04:39:33.911Z,37.00
2019-04-16T04:42:02.349Z,37.45
2019-04-16T04:44:33.595Z,37.45
2019-04-16T04:47:00.906Z,37.81
2019-04-16T04:49:30.381Z,37.72
2019-04-16T04:51:59.590Z,37.22
2019-04-16T04:54:27.998Z,37.16
2019-04-16T04:56:59.321Z,37.14
2019-04-16T04:59:26.629Z,37.41
2019-04-16T05:01:55.029Z,37.18
2019-04-16T05:04:37.046Z,37.62
2019-04-16T05:07:12.840Z,38.05
2019-04-16T05:09:41.243Z,38.68
2019-04-16T05:12:09.643Z,38.77
2019-04-16T05:14:39.685Z,38.16
2019-04-16T05:17:08.096Z,37.78
2019-04-16T05:19:36.515Z,37.26
2019-04-16T05:22:04.961Z,37.39
2019-04-16T05:24:33.382Z,36.90
2019-04-16T05:27:01.772Z,37.38
2019-04-16T05:29:31.777Z,36.81
2019-04-16T05:32:00.173Z,36.96
2019-04-16T05:34:28.574Z,36.96
2019-04-16T05:36:56.982Z,36.89
2019-04-16T05:39:28.374Z,36.69
2019-04-16T05:41:56.118Z,36.52
2019-04-16T05:44:24.601Z,36.45
2019-04-16T05:46:53.001Z,36.46
2019-04-16T05:49:25.687Z,36.30
2019-04-16T05:51:52.400Z,36.47
2019-04-16T05:54:34.233Z,36.27
2019-04-16T05:57:20.261Z,36.15
2019-04-16T05:59:48.661Z,36.21
2019-04-16T06:02:19.851Z,35.98
2019-04-16T06:04:48.588Z,36.10
2019-04-16T06:07:17.054Z,36.22
2019-04-16T06:09:45.465Z,35.97
2019-04-16T06:12:14.113Z,36.06
2019-04-16T06:14:46.532Z,36.03
2019-04-16T06:17:31.774Z,35.89
2019-04-16T06:20:09.507Z,35.80
2019-04-16T06:22:42.378Z,35.84
2019-04-16T06:25:12.431Z,35.87
2019-04-16T06:27:42.468Z,35.71
2019-04-16T06:30:32.983Z,35.57
2019-04-16T06:33:06.458Z,35.82
2019-04-16T06:35:52.550Z,35.83
2019-04-16T06:38:31.609Z,35.72
2019-04-16T06:41:04.705Z,35.67
2019-04-16T06:43:43.461Z,35.32
2019-04-16T06:46:16.542Z,35.51
2019-04-16T06:48:52.100Z,35.47
2019-04-16T06:51:43.391Z,35.51
2019-04-16T06:54:31.853Z,35.31
2019-04-16T06:57:02.882Z,35.37
2019-04-16T06:59:35.981Z,35.27
2019-04-16T07:02:15.120Z,35.22
2019-04-16T07:05:02.077Z,35.24
2019-04-16T07:07:39.453Z,35.19
2019-04-16T07:10:09.701Z,35.08
2019-04-16T07:12:39.219Z,35.11
2019-04-16T07:15:08.966Z,34.97
2019-04-16T07:17:40.292Z,34.96
2019-04-16T07:20:13.041Z,34.96
2019-04-16T07:22:37.738Z,34.91
2019-04-16T07:25:07.049Z,34.83
2019-04-16T07:27:38.668Z,34.85
2019-04-16T07:30:09.451Z,34.82
2019-04-16T07:32:39.663Z,34.66
2019-04-16T07:35:27.225Z,34.61
2019-04-16T07:37:57.433Z,34.54
2019-04-16T07:40:30.035Z,34.56
2019-04-16T07:43:06.087Z,34.49
2019-04-16T07:45:38.673Z,34.43
2019-04-16T07:48:08.719Z,34.39
2019-04-16T07:50:54.756Z,34.42
2019-04-16T07:53:47.139Z,34.37
2019-04-16T07:56:16.804Z,34.26
2019-04-16T07:58:45.218Z,34.20
2019-04-16T08:01:16.407Z,34.17
2019-04-16T08:03:43.842Z,34.13
2019-04-16T08:06:14.302Z,34.08
2019-04-16T08:08:42.400Z,34.04
2019-04-16T08:11:11.108Z,33.86
2019-04-16T08:13:40.615Z,33.91
2019-04-16T08:16:09.201Z,33.88
2019-04-16T08:18:39.318Z,33.81
2019-04-16T08:21:12.062Z,33.75
2019-04-16T08:23:39.717Z,33.71
2019-04-16T08:26:13.010Z,33.63
2019-04-16T08:28:38.343Z,33.59
2019-04-16T08:31:12.355Z,33.55
2019-04-16T08:33:38.283Z,33.53
2019-04-16T08:36:06.684Z,33.49
2019-04-16T08:38:35.112Z,33.44
2019-04-16T08:41:03.894Z,33.43
2019-04-16T08:43:32.291Z,33.40
2019-04-16T08:46:00.852Z,33.37
2019-04-16T08:48:29.262Z,33.35
2019-04-16T08:50:59.068Z,33.31
2019-04-16T08:53:27.602Z,33.32
2019-04-16T08:55:56.207Z,33.29
2019-04-16T08:58:24.983Z,33.26
2019-04-16T09:00:53.571Z,33.24
2019-04-16T09:03:21.967Z,33.19
2019-04-16T09:05:50.406Z,33.18
2019-04-16T09:08:36.523Z,33.15
2019-04-16T09:11:04.957Z,33.10
2019-04-16T09:13:40.995Z,33.13
2019-04-16T09:16:10.824Z,33.04
2019-04-16T09:18:48.453Z,33.04
2019-04-16T09:21:16.958Z,32.99
2019-04-16T09:23:47.007Z,33.01
2019-04-16T09:26:32.753Z,32.97
2019-04-16T09:29:09.272Z,32.74
2019-04-16T09:31:40.022Z,32.67
2019-04-16T09:34:10.196Z,32.44
2019-04-16T09:36:40.233Z,32.11
2019-04-16T09:39:13.176Z,31.76
2019-04-16T09:41:42.735Z,31.63
2019-04-16T09:44:11.149Z,31.31
2019-04-16T09:46:51.226Z,31.07
2019-04-16T09:49:09.776Z,30.83
2019-04-16T09:51:38.178Z,30.57
2019-04-16T09:54:06.629Z,30.39
2019-04-16T09:56:35.006Z,30.19
2019-04-16T09:59:07.476Z,29.98
2019-04-16T10:01:43.077Z,29.79
2019-04-16T10:04:13.114Z,29.61
2019-04-16T10:06:41.512Z,29.40
2019-04-16T10:09:09.911Z,29.21
2019-04-16T10:11:38.300Z,29.06
2019-04-16T10:14:06.894Z,28.88
2019-04-16T10:16:35.562Z,28.73
2019-04-16T10:19:07.837Z,28.54
2019-04-16T10:21:34.077Z,28.36
2019-04-16T10:24:12.986Z,28.23
2019-04-16T10:26:39.943Z,28.08
2019-04-16T10:29:10.052Z,27.82
2019-04-16T10:31:38.451Z,27.56
2019-04-16T10:34:06.849Z,27.10
2019-04-16T10:36:37.952Z,26.79
2019-04-16T10:39:10.989Z,26.57
2019-04-16T10:41:46.615Z,26.22
2019-04-16T10:44:32.089Z,26.08
2019-04-16T10:47:19.966Z,25.65
2019-04-16T10:50:06.687Z,25.05
2019-04-16T10:52:55.664Z,24.37
2019-04-16T10:55:25.032Z,23.76
2019-04-16T10:58:10.928Z,23.04
2019-04-16T11:00:43.875Z,22.52
2019-04-16T11:03:19.808Z,21.78
2019-04-16T11:05:49.876Z,21.19
2019-04-16T11:08:18.320Z,20.57
2019-04-16T11:10:46.818Z,20.04
2019-04-16T11:13:16.832Z,19.65
2019-04-16T11:15:45.459Z,19.19
2019-04-16T11:18:14.101Z,18.94
2019-04-16T11:20:42.594Z,18.61
2019-04-16T11:23:11.006Z,18.30
2019-04-16T11:25:39.403Z,18.07
2019-04-16T11:28:07.926Z,17.73
2019-04-16T11:30:38.017Z,17.50
2019-04-16T11:33:06.446Z,17.33
2019-04-16T11:35:34.833Z,17.08
2019-04-16T11:38:03.217Z,16.90
2019-04-16T11:40:31.734Z,16.75
2019-04-16T11:43:00.096Z,16.52
2019-04-16T11:45:28.654Z,16.31
2019-04-16T11:47:57.037Z,16.16
2019-04-16T11:50:25.420Z,15.91
2019-04-16T11:52:57.223Z,15.84
2019-04-16T11:55:24.260Z,15.59
2019-04-16T11:57:52.819Z,15.54
2019-04-16T12:00:25.558Z,15.38
2019-04-16T12:03:12.173Z,15.28
2019-04-16T12:05:58.449Z,15.10
2019-04-16T12:08:46.381Z,14.92
2019-04-16T12:11:28.186Z,14.76
2019-04-16T12:14:08.126Z,14.59
2019-04-16T12:16:35.762Z,14.51
2019-04-16T12:19:06.144Z,14.37
2019-04-16T12:21:42.461Z,14.17
2019-04-16T12:24:30.469Z,14.10
2019-04-16T12:27:00.557Z,13.93
2019-04-16T12:29:36.425Z,13.80
2019-04-16T12:32:09.418Z,13.66
2019-04-16T12:34:39.661Z,13.50
2019-04-16T12:37:12.268Z,13.41
2019-04-16T12:39:48.124Z,13.27
2019-04-16T12:42:18.121Z,13.11
2019-04-16T12:44:50.915Z,12.98
2019-04-16T12:47:20.996Z,12.74
2019-04-16T12:49:53.959Z,12.68
2019-04-16T12:52:24.027Z,12.54
2019-04-16T12:55:10.502Z,12.43
2019-04-16T12:57:52.893Z,12.34
2019-04-16T13:00:28.533Z,12.21
2019-04-16T13:03:16.758Z,12.11
2019-04-16T13:05:57.380Z,12.03
2019-04-16T13:08:27.421Z,11.21
2019-04-16T13:11:09.651Z,10.44
2019-04-16T13:13:54.727Z,10.43
2019-04-16T13:16:41.118Z,9.39
2019-04-16T13:19:27.476Z,9.39
2019-04-16T13:22:00.130Z,9.69
2019-04-16T13:24:30.693Z,9.73
2019-04-16T13:27:06.566Z,9.14
2019-04-16T13:29:34.954Z,9.28
2019-04-16T13:32:04.437Z,8.73
2019-04-16T13:34:32.892Z,8.58
2019-04-16T13:37:01.278Z,8.50
2019-04-16T13:39:31.308Z,8.41
2019-04-16T13:41:59.888Z,8.29
2019-04-16T13:44:29.919Z,8.51
2019-04-16T13:47:01.342Z,8.16
2019-04-16T13:49:38.929Z,8.21
2019-04-16T13:52:07.359Z,8.11
2019-04-16T13:54:40.076Z,8.03
2019-04-16T13:57:12.873Z,8.55
2019-04-16T14:00:02.938Z,9.32
2019-04-16T14:02:38.891Z,9.83
2019-04-16T14:05:10.563Z,10.51
2019-04-16T14:07:37.876Z,11.01
2019-04-16T14:10:07.039Z,11.79
2019-04-16T14:12:42.274Z,12.11
2019-04-16T14:15:08.524Z,12.21
2019-04-16T14:17:51.813Z,12.88
2019-04-16T14:20:08.683Z,13.58
2019-04-16T14:22:38.100Z,13.84
2019-04-16T14:25:06.961Z,13.86
2019-04-16T14:27:35.471Z,14.16
2019-04-16T14:30:09.997Z,14.23
2019-04-16T14:32:37.662Z,14.73
2019-04-16T14:35:08.072Z,15.00
2019-04-16T14:37:36.477Z,14.87
2019-04-16T14:40:10.904Z,14.83
2019-04-16T14:42:39.342Z,15.37
2019-04-16T14:45:21.802Z,15.37
2019-04-16T14:47:50.235Z,15.65
2019-04-16T14:50:19.985Z,16.11
2019-04-16T14:52:48.863Z,16.47
2019-04-16T14:55:20.662Z,16.74
2019-04-16T14:58:02.750Z,17.06
2019-04-16T15:00:49.887Z,17.28
2019-04-16T15:03:35.948Z,17.61
2019-04-16T15:06:06.002Z,17.88
2019-04-16T15:08:36.112Z,18.92
2019-04-16T15:11:14.887Z,18.92
2019-04-16T15:13:47.493Z,18.59
2019-04-16T15:16:22.183Z,18.80
2019-04-16T15:18:54.611Z,18.95
2019-04-16T15:21:30.157Z,19.18
2019-04-16T15:24:01.610Z,19.30
2019-04-16T15:26:32.113Z,19.57
2019-04-16T15:29:07.713Z,19.81
2019-04-16T15:31:43.254Z,20.06
2019-04-16T15:34:22.134Z,20.28
2019-04-16T15:36:55.277Z,20.41
2019-04-16T15:39:25.502Z,20.44
2019-04-16T15:41:58.701Z,20.50
2019-04-16T15:44:34.969Z,20.51
2019-04-16T15:47:05.005Z,20.69
2019-04-16T15:49:43.873Z,20.86
2019-04-16T15:52:30.141Z,20.92
2019-04-16T15:55:05.983Z,21.00
2019-04-16T15:57:44.838Z,21.06
2019-04-16T16:00:32.879Z,21.04
2019-04-16T16:03:05.742Z,21.13
2019-04-16T16:05:38.840Z,21.02
2019-04-16T16:08:11.560Z,21.10
2019-04-16T16:10:58.106Z,21.13
2019-04-16T16:13:27.247Z,21.13
2019-04-16T16:15:55.725Z,21.30
2019-04-16T16:18:24.254Z,21.32
2019-04-16T16:20:52.785Z,21.30
2019-04-16T16:23:21.258Z,21.21
2019-04-16T16:25:49.692Z,21.22
2019-04-16T16:28:18.089Z,21.47
2019-04-16T16:30:46.705Z,21.91
2019-04-16T16:33:15.100Z,22.15
2019-04-16T16:35:56.908Z,22.39
2019-04-16T16:38:14.061Z,22.52
2019-04-16T16:40:43.356Z,22.79
2019-04-16T16:43:14.133Z,23.06
2019-04-16T16:45:43.596Z,23.26
2019-04-16T16:48:13.625Z,23.37
2019-04-16T16:50:44.109Z,23.60
2019-04-16T16:53:13.784Z,23.77
2019-04-16T16:55:43.810Z,23.90
2019-04-16T16:58:20.998Z,24.07
2019-04-16T17:01:07.792Z,24.20
2019-04-16T17:03:40.374Z,24.35
2019-04-16T17:06:10.408Z,24.42
2019-04-16T17:08:38.821Z,24.52
2019-04-16T17:11:16.176Z,24.59
2019-04-16T17:13:37.475Z,24.76
2019-04-16T17:16:05.898Z,24.83
2019-04-16T17:18:34.293Z,24.94
2019-04-16T17:21:02.762Z,25.22
2019-04-16T17:23:31.235Z,25.82
2019-04-16T17:25:59.621Z,26.14
2019-04-16T17:28:28.026Z,26.22
2019-04-16T17:30:56.434Z,26.45
2019-04-16T17:33:24.824Z,26.53
2019-04-16T17:35:53.278Z,26.77
2019-04-16T17:38:21.772Z,26.98
2019-04-16T17:40:58.632Z,27.12
2019-04-16T17:43:26.110Z,27.53
2019-04-16T17:46:02.221Z,27.49
2019-04-16T17:48:47.160Z,27.72
2019-04-16T17:51:17.207Z,27.82
2019-04-16T17:53:47.350Z,27.82
2019-04-16T17:56:17.455Z,27.93
2019-04-16T17:58:47.782Z,28.11
2019-04-16T18:01:20.419Z,28.20
2019-04-16T18:03:53.429Z,28.28
2019-04-16T18:06:26.496Z,28.34
2019-04-16T18:08:59.350Z,28.40
2019-04-16T18:11:32.708Z,28.36
2019-04-16T18:14:11.341Z,28.59
2019-04-16T18:16:40.413Z,28.84
2019-04-16T18:19:13.857Z,28.79
2019-04-16T18:21:46.909Z,28.76
2019-04-16T18:24:16.950Z,28.83
2019-04-16T18:26:47.005Z,28.90
2019-04-16T18:29:17.054Z,28.88
2019-04-16T18:31:47.088Z,28.98
2019-04-16T18:34:23.215Z,29.11
2019-04-16T18:37:09.779Z,29.15
2019-04-16T18:39:56.402Z,29.28
2019-04-16T18:42:35.013Z,29.34
2019-04-16T18:45:11.954Z,29.47
2019-04-16T18:47:42.008Z,29.57
2019-04-16T18:50:12.038Z,29.58
2019-04-16T18:52:40.466Z,29.70
2019-04-16T18:55:09.031Z,29.78
2019-04-16T18:57:38.377Z,29.82
2019-04-16T19:00:09.669Z,29.92
2019-04-16T19:02:41.934Z,30.03
2019-04-16T19:05:08.391Z,30.11
2019-04-16T19:07:36.810Z,30.11
2019-04-16T19:10:06.416Z,30.15
2019-04-16T19:12:34.899Z,30.28
2019-04-16T19:15:03.349Z,30.35
2019-04-16T19:17:31.812Z,30.92
2019-04-16T19:20:03.579Z,31.20
2019-04-16T19:22:30.375Z,31.34
2019-04-16T19:24:58.855Z,31.77
2019-04-16T19:27:27.931Z,31.92
2019-04-16T19:29:57.641Z,32.16
2019-04-16T19:32:27.763Z,32.51
2019-04-16T19:35:08.212Z,32.46
2019-04-16T19:37:29.677Z,32.41
2019-04-16T19:39:57.310Z,32.86
2019-04-16T19:42:28.731Z,32.59
2019-04-16T19:44:55.884Z,32.59
2019-04-16T19:47:26.660Z,32.54
2019-04-16T19:49:54.697Z,32.60
2019-04-16T19:52:23.565Z,32.51
2019-04-16T19:54:52.005Z,32.53
2019-04-16T19:57:20.472Z,32.42
2019-04-16T19:59:48.906Z,32.49
2019-04-16T20:02:17.349Z,32.40
2019-04-16T20:04:45.784Z,32.34
2019-04-16T20:07:14.184Z,32.25
2019-04-16T20:09:42.587Z,32.41
2019-04-16T20:12:10.984Z,32.41
2019-04-16T20:14:39.398Z,32.47
2019-04-16T20:17:07.792Z,32.48
2019-04-16T20:19:37.830Z,32.54
2019-04-16T20:22:06.233Z,32.61
2019-04-16T20:24:34.626Z,32.43
2019-04-16T20:27:06.710Z,32.74
2019-04-16T20:29:33.273Z,32.64
2019-04-16T20:32:01.699Z,32.72
2019-04-16T20:34:30.140Z,32.77
2019-04-16T20:36:58.529Z,32.70
2019-04-16T20:39:26.920Z,32.83
2019-04-16T20:41:59.252Z,32.92
2019-04-16T20:44:26.177Z,32.85
2019-04-16T20:46:54.620Z,32.95
2019-04-16T20:49:23.017Z,32.94
2019-04-16T20:51:51.410Z,32.95
2019-04-16T20:54:19.852Z,32.91
2019-04-16T20:56:50.061Z,33.03
2019-04-16T20:59:21.063Z,33.07
2019-04-16T21:01:49.530Z,32.98
2019-04-16T21:04:17.937Z,33.07
2019-04-16T21:06:46.333Z,33.15
2019-04-16T21:09:15.621Z,33.17
2019-04-16T21:11:44.017Z,33.21
2019-04-16T21:14:12.521Z,33.25
2019-04-16T21:16:40.923Z,33.25
2019-04-16T21:19:22.168Z,33.36
2019-04-16T21:21:39.470Z,33.39
2019-04-16T21:24:08.986Z,33.49
2019-04-16T21:26:37.820Z,33.39
2019-04-16T21:29:22.658Z,33.37
2019-04-16T21:31:58.913Z,33.45
2019-04-16T21:34:44.122Z,33.50
2019-04-16T21:37:14.190Z,33.61
2019-04-16T21:39:53.127Z,33.54
2019-04-16T21:42:21.512Z,33.61
2019-04-16T21:44:49.910Z,33.57
2019-04-16T21:47:23.045Z,33.70
2019-04-16T21:49:48.417Z,33.72
2019-04-16T21:52:16.804Z,33.69
2019-04-16T21:54:45.204Z,33.64
2019-04-16T21:57:14.417Z,33.75
2019-04-16T21:59:43.120Z,33.92
2019-04-16T22:02:13.960Z,33.96
2019-04-16T22:04:45.018Z,33.90
2019-04-16T22:07:12.691Z,33.86
2019-04-16T22:09:41.100Z,34.03
2019-04-16T22:12:09.522Z,34.01
2019-04-16T22:14:38.008Z,34.31
2019-04-16T22:17:06.470Z,34.23
2019-04-16T22:19:36.371Z,34.29
2019-04-16T22:22:04.909Z,34.23
2019-04-16T22:24:33.353Z,34.18
2019-04-16T22:27:06.081Z,34.24
2019-04-16T22:29:32.004Z,34.22
2019-04-16T22:32:00.415Z,34.31
2019-04-16T22:34:28.811Z,34.29
2019-04-16T22:36:57.200Z,34.32
2019-04-16T22:39:27.234Z,34.33
2019-04-16T22:41:58.374Z,34.38
2019-04-16T22:44:43.715Z,34.33
2019-04-16T22:47:13.745Z,34.38
2019-04-16T22:49:42.135Z,34.40
2019-04-16T22:52:12.552Z,34.46
2019-04-16T22:54:40.646Z,34.49
2019-04-16T22:57:10.689Z,34.51
2019-04-16T22:59:40.068Z,34.53
2019-04-16T23:02:10.352Z,34.51
2019-04-16T23:04:38.729Z,34.62
2019-04-16T23:07:08.745Z,34.63
2019-04-16T23:09:37.442Z,34.63
2019-04-16T23:12:05.928Z,34.70
2019-04-16T23:14:35.390Z,34.74
2019-04-16T23:17:04.118Z,34.74
2019-04-16T23:19:32.511Z,34.84
2019-04-16T23:22:00.922Z,34.90
2019-04-16T23:24:29.320Z,34.82
2019-04-16T23:26:57.724Z,34.96
2019-04-16T23:29:26.111Z,34.92
2019-04-16T23:31:55.978Z,34.97
2019-04-16T23:34:24.702Z,34.99
2019-04-16T23:36:53.260Z,34.91
2019-04-16T23:39:21.643Z,34.95
2019-04-16T23:41:50.037Z,34.99
2019-04-16T23:44:35.996Z,35.01
2019-04-16T23:47:17.577Z,35.05
2019-04-16T23:49:53.196Z,35.05
2019-04-16T23:52:25.642Z,35.18
2019-04-16T23:54:58.556Z,35.07
2019-04-16T23:57:37.640Z,35.15
